Time;durP1;ratioP1;P1;durP2;ratioP2;P2;SDS_P1;SDS_P2;PMS_P1;PMS_P2;Temp;Humidity;BMP_temperature;BMP_pressure;BME280_temperature;BME280_humidity;BME280_pressure;Samples;Min_cycle;Max_cycle;Signal;HPM_P1;HPM_P2
2023/06/14 00:01:52;;;;;;;9.40;7.95;;;;;;;18.76;48.20;101348.50;5085387;28;20028;-67
2023/06/14 00:04:17;;;;;;;14.13;8.25;;;;;;;18.69;48.20;101345.28;5084532;28;20360;-67
2023/06/14 00:06:45;;;;;;;8.45;7.30;;;;;;;18.71;48.87;101356.63;5079845;28;20020;-67
2023/06/14 00:09:12;;;;;;;10.23;7.88;;;;;;;18.66;48.72;101341.94;5082459;28;20379;-67
2023/06/14 00:11:38;;;;;;;11.55;7.50;;;;;;;18.67;48.84;101352.44;5076221;28;20091;-68
2023/06/14 00:14:03;;;;;;;11.32;7.90;;;;;;;18.64;48.65;101351.72;5085471;28;20154;-67
2023/06/14 00:16:29;;;;;;;8.70;7.80;;;;;;;18.59;48.68;101349.31;5083108;28;20448;-67
2023/06/14 00:18:54;;;;;;;8.45;7.50;;;;;;;18.60;48.84;101352.78;5080908;28;20054;-67
2023/06/14 00:21:19;;;;;;;9.30;7.40;;;;;;;18.55;49.10;101350.38;5085018;28;20032;-67
2023/06/14 00:23:45;;;;;;;10.60;7.57;;;;;;;18.55;48.34;101353.03;5083563;28;20028;-67
2023/06/14 00:26:11;;;;;;;8.23;7.30;;;;;;;18.53;49.04;101360.16;5084611;28;20032;-67
2023/06/14 00:28:36;;;;;;;8.35;6.85;;;;;;;18.48;48.86;101363.03;5083093;28;20477;-67
2023/06/14 00:31:01;;;;;;;10.52;7.75;;;;;;;18.44;48.28;101363.22;5079663;28;20035;-68
2023/06/14 00:33:26;;;;;;;11.68;7.03;;;;;;;18.32;48.46;101363.84;5084573;28;20407;-67
2023/06/14 00:35:53;;;;;;;9.75;7.63;;;;;;;18.23;48.91;101359.84;5082234;28;20074;-67
2023/06/14 00:38:19;;;;;;;14.10;8.00;;;;;;;18.17;49.70;101357.50;5087801;28;20380;-67
2023/06/14 00:40:45;;;;;;;9.60;7.00;;;;;;;18.09;49.43;101352.59;5080520;28;20024;-67
2023/06/14 00:43:10;;;;;;;8.40;7.03;;;;;;;18.07;49.63;101362.34;5088557;28;20039;-67
2023/06/14 00:45:35;;;;;;;10.20;7.70;;;;;;;18.08;50.11;101356.13;5078942;28;20024;-67
2023/06/14 00:48:02;;;;;;;10.50;7.28;;;;;;;18.07;50.35;101361.50;5082502;28;20058;-68
2023/06/14 00:50:29;;;;;;;7.90;6.75;;;;;;;18.02;50.64;101352.00;5081364;28;20028;-67
2023/06/14 00:52:55;;;;;;;8.73;7.32;;;;;;;18.00;49.56;101355.66;5078195;28;20021;-67
2023/06/14 00:55:20;;;;;;;7.60;6.78;;;;;;;17.98;50.05;101363.66;5083014;28;20040;-67
2023/06/14 00:57:47;;;;;;;10.10;7.65;;;;;;;17.93;49.39;101362.13;5084400;28;20033;-67
2023/06/14 01:00:13;;;;;;;11.43;7.13;;;;;;;17.91;49.17;101356.91;5080620;28;20576;-67
2023/06/14 01:02:38;;;;;;;11.55;7.28;;;;;;;17.82;49.65;101357.34;5086466;28;20029;-67
2023/06/14 01:05:06;;;;;;;9.95;6.55;;;;;;;17.85;49.26;101359.81;5075610;28;20059;-67
2023/06/14 01:08:03;;;;;;;8.00;6.40;;;;;;;17.82;49.55;101364.38;5081022;28;20037;-67
2023/06/14 01:10:52;;;;;;;9.38;6.47;;;;;;;17.77;49.43;101361.97;5080639;28;20074;-67
2023/06/14 01:13:28;;;;;;;10.60;6.90;;;;;;;17.65;50.53;101359.84;5056319;28;20029;-67
2023/06/14 01:15:55;;;;;;;11.35;7.05;;;;;;;17.61;49.42;101356.50;5072555;28;20027;-67
2023/06/14 01:18:21;;;;;;;8.38;6.78;;;;;;;17.63;49.76;101367.84;5084469;28;20055;-67
2023/06/14 01:20:50;;;;;;;11.68;6.50;;;;;;;17.60;48.93;101356.56;5080220;28;20480;-67
2023/06/14 01:23:20;;;;;;;8.70;6.15;;;;;;;17.62;49.23;101367.88;5081481;28;20107;-67
2023/06/14 01:25:46;;;;;;;11.68;6.47;;;;;;;17.53;49.14;101350.72;5077981;28;20076;-67
2023/06/14 01:28:14;;;;;;;9.85;6.57;;;;;;;17.50;49.23;101364.88;5081652;28;20040;-67
2023/06/14 01:30:47;;;;;;;8.52;6.00;;;;;;;17.46;49.45;101372.97;5079707;28;20096;-67
2023/06/14 01:33:15;;;;;;;20.90;6.13;;;;;;;17.45;48.75;101371.28;5081345;28;20396;-67
2023/06/14 01:35:51;;;;;;;7.95;5.80;;;;;;;17.44;48.03;101361.66;5075719;28;20033;-67
2023/06/14 01:38:19;;;;;;;9.10;6.30;;;;;;;17.35;47.94;101365.53;5065635;28;20020;-67
2023/06/14 01:40:46;;;;;;;9.80;6.50;;;;;;;17.38;48.45;101365.41;5081221;28;20111;-67
2023/06/14 01:43:14;;;;;;;7.85;6.47;;;;;;;17.36;48.55;101366.41;5075334;28;20175;-67
2023/06/14 01:45:41;;;;;;;8.60;5.72;;;;;;;17.27;47.90;101365.03;5082634;28;20110;-67
2023/06/14 01:48:07;;;;;;;10.43;6.20;;;;;;;17.23;48.18;101355.53;5082586;28;20028;-67
2023/06/14 01:50:32;;;;;;;12.73;6.53;;;;;;;17.24;48.39;101367.81;5082505;28;20032;-67
2023/06/14 01:52:58;;;;;;;7.80;6.28;;;;;;;17.20;47.38;101366.19;5076549;28;20047;-67
2023/06/14 01:55:24;;;;;;;9.40;6.53;;;;;;;17.13;47.48;101364.75;5079023;28;20063;-67
2023/06/14 01:57:50;;;;;;;9.52;6.57;;;;;;;17.14;47.54;101350.69;5075248;28;20503;-67
2023/06/14 02:00:18;;;;;;;10.25;6.03;;;;;;;17.11;46.65;101359.56;5081471;28;20028;-67
2023/06/14 02:02:43;;;;;;;7.07;6.00;;;;;;;17.12;47.96;101365.69;5083708;28;20075;-67
2023/06/14 02:05:08;;;;;;;21.25;7.18;;;;;;;17.07;46.76;101365.88;5079819;28;20486;-67
2023/06/14 02:07:34;;;;;;;11.75;6.57;;;;;;;16.98;47.42;101359.22;5080773;28;20437;-67
2023/06/14 02:09:59;;;;;;;12.18;6.05;;;;;;;17.00;47.37;101354.75;5075201;28;20024;-66
2023/06/14 02:12:25;;;;;;;8.77;6.18;;;;;;;16.97;47.07;101361.91;5074125;28;20539;-67
2023/06/14 02:14:50;;;;;;;10.30;6.30;;;;;;;16.93;47.72;101362.97;5083039;28;20036;-67
2023/06/14 02:17:15;;;;;;;9.05;6.43;;;;;;;16.88;46.78;101360.53;5084226;28;20073;-67
2023/06/14 02:19:42;;;;;;;8.50;6.55;;;;;;;16.87;47.38;101355.31;5079476;28;20032;-67
2023/06/14 02:22:07;;;;;;;9.35;6.63;;;;;;;16.83;47.74;101365.13;5070288;28;20057;-66
2023/06/14 02:24:32;;;;;;;8.05;6.18;;;;;;;16.81;48.28;101359.94;5080893;28;20441;-68
2023/06/14 02:26:58;;;;;;;10.55;6.20;;;;;;;16.79;48.00;101360.91;5081687;28;20383;-67
2023/06/14 02:29:23;;;;;;;8.13;5.72;;;;;;;16.81;47.81;101372.25;5083666;28;20036;-67
2023/06/14 02:31:49;;;;;;;10.55;5.88;;;;;;;16.80;48.33;101367.88;5081734;28;20028;-67
2023/06/14 02:34:16;;;;;;;8.98;6.13;;;;;;;16.79;47.86;101372.28;5083471;28;20036;-67
2023/06/14 02:36:45;;;;;;;7.75;5.78;;;;;;;16.74;47.96;101374.22;5066898;28;20033;-67
2023/06/14 02:39:11;;;;;;;11.48;5.97;;;;;;;16.58;48.15;101378.41;5077219;28;20020;-67
2023/06/14 02:41:37;;;;;;;8.82;6.05;;;;;;;16.61;48.05;101378.25;5079973;28;20032;-67
2023/06/14 02:44:02;;;;;;;9.57;5.80;;;;;;;16.53;48.01;101381.19;5087277;28;20025;-67
2023/06/14 02:46:28;;;;;;;8.73;5.60;;;;;;;16.52;48.27;101379.50;5086712;28;20441;-67
2023/06/14 02:48:53;;;;;;;8.82;5.72;;;;;;;16.57;48.08;101381.94;5083984;28;20472;-67
2023/06/14 02:51:18;;;;;;;9.27;5.30;;;;;;;16.57;49.37;101377.53;5086218;28;20024;-67
2023/06/14 02:53:43;;;;;;;9.20;5.78;;;;;;;16.51;49.19;101383.06;5085902;28;20483;-67
2023/06/14 02:56:09;;;;;;;9.10;5.60;;;;;;;16.44;48.87;101389.44;5083972;28;20472;-67
2023/06/14 02:58:37;;;;;;;8.13;5.78;;;;;;;16.35;48.53;101381.94;5086870;28;20028;-67
2023/06/14 03:01:03;;;;;;;9.75;5.43;;;;;;;16.32;49.68;101380.28;5083960;28;20024;-67
2023/06/14 03:03:28;;;;;;;7.50;5.20;;;;;;;16.29;49.64;101382.19;5078156;28;20130;-69
2023/06/14 03:05:54;;;;;;;8.52;5.38;;;;;;;16.25;49.47;101384.06;5088646;28;20456;-69
2023/06/14 03:08:19;;;;;;;9.27;5.82;;;;;;;16.18;49.14;101381.72;5081630;28;20021;-70
2023/06/14 03:10:48;;;;;;;8.15;5.65;;;;;;;16.19;50.05;101392.19;5083743;28;20027;-69
2023/06/14 03:13:15;;;;;;;8.63;5.68;;;;;;;16.18;50.52;101393.09;5078692;28;20104;-69
2023/06/14 03:15:44;;;;;;;6.30;5.60;;;;;;;16.22;50.49;101399.09;5088330;28;20448;-70
2023/06/14 03:18:11;;;;;;;6.85;5.40;;;;;;;16.17;50.04;101398.44;5083474;28;20028;-69
2023/06/14 03:20:37;;;;;;;11.70;5.18;;;;;;;16.04;50.44;101377.84;5075839;28;20059;-67
2023/06/14 03:23:03;;;;;;;9.77;5.72;;;;;;;16.10;50.71;101403.06;5082976;28;20024;-67
2023/06/14 03:25:29;;;;;;;10.68;5.38;;;;;;;16.14;50.83;101404.66;5083015;28;20082;-67
2023/06/14 03:27:57;;;;;;;11.10;5.53;;;;;;;16.10;50.38;101403.91;5083138;28;20040;-67
2023/06/14 03:30:23;;;;;;;10.40;5.45;;;;;;;16.09;49.57;101410.09;5079150;28;20040;-67
2023/06/14 03:32:48;;;;;;;6.28;5.45;;;;;;;16.06;50.35;101412.84;5090477;28;20024;-70
2023/06/14 03:35:17;;;;;;;7.68;5.45;;;;;;;16.03;50.46;101405.06;5080926;28;20032;-70
2023/06/14 03:37:46;;;;;;;12.52;5.65;;;;;;;15.96;50.34;101410.59;5072047;28;20037;-67
2023/06/14 03:40:13;;;;;;;7.75;5.15;;;;;;;15.99;50.77;101408.72;5087361;28;20040;-67
2023/06/14 03:42:38;;;;;;;8.02;5.40;;;;;;;15.93;51.29;101411.56;5080421;28;20028;-67
2023/06/14 03:45:05;;;;;;;11.65;5.40;;;;;;;15.90;50.65;101412.53;5088175;28;20032;-67
2023/06/14 03:47:30;;;;;;;9.27;5.75;;;;;;;15.93;50.03;101416.84;5083023;28;20046;-67
2023/06/14 03:49:55;;;;;;;6.35;5.13;;;;;;;15.93;50.83;101415.97;5089771;28;20464;-67
2023/06/14 03:52:22;;;;;;;10.10;5.22;;;;;;;15.83;51.32;101404.94;5083904;28;20118;-67
2023/06/14 03:54:47;;;;;;;6.68;5.07;;;;;;;15.89;51.18;101408.22;5078641;28;20073;-67
2023/06/14 03:57:12;;;;;;;7.93;5.63;;;;;;;15.94;51.27;101412.44;5081247;28;20032;-67
2023/06/14 03:59:38;;;;;;;11.75;5.85;;;;;;;15.92;51.91;101407.22;5083258;28;20032;-67
2023/06/14 04:02:03;;;;;;;7.28;5.25;;;;;;;15.96;51.00;101416.72;5085716;28;20023;-67
2023/06/14 04:04:29;;;;;;;11.20;6.10;;;;;;;15.96;50.90;101427.25;5081848;28;20024;-67
2023/06/14 04:06:56;;;;;;;13.18;5.80;;;;;;;15.94;51.60;101423.81;5085038;28;20096;-67
2023/06/14 04:09:22;;;;;;;10.30;5.90;;;;;;;15.89;51.77;101415.22;5082903;28;20024;-67
2023/06/14 04:11:48;;;;;;;10.48;5.70;;;;;;;16.00;52.60;101420.94;5084732;28;20020;-67
2023/06/14 04:14:13;;;;;;;10.82;5.60;;;;;;;15.99;51.66;101421.88;5084476;28;20028;-67
2023/06/14 04:16:38;;;;;;;10.88;5.80;;;;;;;16.05;51.33;101432.13;5084145;28;20062;-67
2023/06/14 04:19:03;;;;;;;9.63;6.13;;;;;;;16.05;51.12;101424.25;5084799;28;20024;-67
2023/06/14 04:21:29;;;;;;;11.57;6.40;;;;;;;16.10;51.93;101427.59;5077500;28;20123;-67
2023/06/14 04:23:55;;;;;;;17.17;6.32;;;;;;;16.19;52.08;101433.44;5083626;28;20020;-67
2023/06/14 04:26:23;;;;;;;11.27;6.03;;;;;;;16.14;51.35;101439.69;5085043;28;20536;-69
2023/06/14 04:28:49;;;;;;;17.20;6.28;;;;;;;16.13;51.85;101427.47;5086963;28;20488;-68
2023/06/14 04:31:15;;;;;;;12.43;6.38;;;;;;;16.25;52.20;101434.06;5084177;28;20020;-67
2023/06/14 04:33:43;;;;;;;8.10;5.78;;;;;;;16.30;51.24;101439.97;5084237;28;20058;-68
2023/06/14 04:36:13;;;;;;;16.50;6.63;;;;;;;16.30;51.41;101439.97;5084905;28;20028;-67
2023/06/14 04:38:38;;;;;;;8.90;5.28;;;;;;;16.33;51.29;101439.88;5084516;28;20024;-68
2023/06/14 04:41:04;;;;;;;10.98;6.45;;;;;;;16.33;51.38;101439.03;5083506;28;20035;-68
2023/06/14 04:43:31;;;;;;;10.75;5.93;;;;;;;16.33;51.62;101441.66;5088025;28;20460;-67
2023/06/14 04:45:57;;;;;;;8.10;5.07;;;;;;;16.41;51.46;101442.19;5072935;28;20025;-68
2023/06/14 04:48:22;;;;;;;8.93;5.78;;;;;;;16.42;50.75;101440.44;5085009;28;20032;-68
2023/06/14 04:50:48;;;;;;;10.43;5.78;;;;;;;16.43;50.62;101443.00;5080753;28;20020;-67
2023/06/14 04:53:13;;;;;;;9.93;5.40;;;;;;;16.46;51.18;101453.41;5085448;28;20020;-67
2023/06/14 04:55:38;;;;;;;10.77;6.22;;;;;;;16.51;51.46;101445.34;5081022;28;20044;-67
2023/06/14 04:58:04;;;;;;;10.52;6.30;;;;;;;16.54;50.99;101443.44;5081430;28;20078;-67
2023/06/14 05:00:30;;;;;;;6.85;5.47;;;;;;;16.62;50.49;101451.06;5086075;28;20123;-67
2023/06/14 05:02:56;;;;;;;9.35;6.97;;;;;;;16.71;50.81;101453.34;5074054;28;20021;-67
2023/06/14 05:05:22;;;;;;;8.57;6.00;;;;;;;16.69;51.12;101447.25;5087279;28;20056;-67
2023/06/14 05:07:47;;;;;;;9.07;5.85;;;;;;;16.68;51.01;101445.56;5080138;28;20048;-68
2023/06/14 05:10:12;;;;;;;8.20;6.00;;;;;;;16.76;50.57;101442.66;5086339;28;20062;-68
2023/06/14 05:12:38;;;;;;;14.05;6.00;;;;;;;16.78;50.82;101446.09;5081863;28;20114;-68
2023/06/14 05:15:04;;;;;;;10.00;5.57;;;;;;;16.73;50.17;101433.06;5083395;28;20378;-68
2023/06/14 05:17:29;;;;;;;9.52;5.43;;;;;;;16.92;51.32;101456.06;5083797;28;20036;-68
2023/06/14 05:19:55;;;;;;;9.23;5.97;;;;;;;16.89;50.52;101448.28;5077550;28;20034;-68
2023/06/14 05:22:21;;;;;;;11.80;5.90;;;;;;;16.99;50.55;101458.38;5082775;28;20482;-68
2023/06/14 05:24:48;;;;;;;8.55;5.70;;;;;;;17.05;50.96;101462.56;5078271;28;20101;-67
2023/06/14 05:27:13;;;;;;;11.55;6.25;;;;;;;17.12;50.77;101456.09;5083152;28;20425;-68
2023/06/14 05:29:38;;;;;;;12.30;6.10;;;;;;;17.18;50.59;101457.63;5081481;28;20028;-67
2023/06/14 05:32:04;;;;;;;9.43;5.68;;;;;;;17.21;50.63;101455.72;5085765;28;20024;-67
2023/06/14 05:34:29;;;;;;;9.45;6.10;;;;;;;17.26;49.94;101461.66;5083067;28;20094;-67
2023/06/14 05:36:55;;;;;;;11.82;6.00;;;;;;;17.29;50.22;101461.53;5082716;28;20036;-68
2023/06/14 05:39:20;;;;;;;13.38;6.20;;;;;;;17.34;50.69;101466.63;5078279;28;20024;-67
2023/06/14 05:41:45;;;;;;;13.90;6.38;;;;;;;17.43;50.31;101468.88;5077104;28;20029;-67
2023/06/14 05:44:11;;;;;;;14.57;5.55;;;;;;;17.50;49.91;101470.31;5086458;28;20032;-68
2023/06/14 05:46:36;;;;;;;14.80;6.85;;;;;;;17.57;49.51;101467.44;5080547;28;20035;-68
2023/06/14 05:49:01;;;;;;;15.48;6.18;;;;;;;17.68;49.85;101473.09;5080441;28;20031;-68
2023/06/14 05:51:27;;;;;;;13.00;6.47;;;;;;;17.74;49.92;101471.03;5085112;28;20031;-68
2023/06/14 05:53:52;;;;;;;23.67;5.97;;;;;;;17.76;49.51;101469.25;5082572;28;20467;-68
2023/06/14 05:56:18;;;;;;;11.73;5.85;;;;;;;17.82;49.44;101472.53;5075491;28;20028;-67
2023/06/14 05:58:44;;;;;;;9.02;5.78;;;;;;;17.85;48.95;101467.97;5082409;28;20028;-68
2023/06/14 06:01:10;;;;;;;11.48;6.07;;;;;;;17.91;48.69;101475.63;5077572;28;20079;-68
2023/06/14 06:03:35;;;;;;;14.77;6.25;;;;;;;17.97;49.12;101479.78;5079196;28;20027;-68
2023/06/14 06:06:01;;;;;;;12.48;6.07;;;;;;;18.00;49.55;101467.28;5079471;28;20888;-68
2023/06/14 06:08:27;;;;;;;13.65;6.07;;;;;;;18.13;48.90;101483.44;5073699;28;20028;-68
2023/06/14 06:10:52;;;;;;;10.98;6.20;;;;;;;18.21;48.08;101483.09;5072598;28;20032;-68
2023/06/14 06:13:18;;;;;;;21.98;7.15;;;;;;;18.22;48.63;101474.25;5082290;28;20031;-68
2023/06/14 06:15:43;;;;;;;11.43;5.88;;;;;;;18.32;48.34;101478.19;5084819;28;20028;-68
2023/06/14 06:18:08;;;;;;;8.93;5.88;;;;;;;18.36;48.40;101487.69;5084702;28;20024;-67
2023/06/14 06:20:34;;;;;;;14.60;6.38;;;;;;;18.44;48.18;101492.59;5078462;28;20029;-68
2023/06/14 06:22:59;;;;;;;8.27;5.68;;;;;;;18.49;47.72;101493.25;5090188;28;20520;-68
2023/06/14 06:25:31;;;;;;;14.30;5.88;;;;;;;18.59;47.61;101493.69;5082289;28;20028;-68
2023/06/14 06:27:57;;;;;;;8.95;5.80;;;;;;;18.63;48.02;101505.81;5086717;28;20072;-67
2023/06/14 06:30:23;;;;;;;12.30;5.88;;;;;;;18.69;47.14;101501.09;5068308;28;20025;-67
2023/06/14 06:32:49;;;;;;;8.85;5.70;;;;;;;18.74;47.59;101500.94;5081076;28;20071;-70
2023/06/14 06:35:14;;;;;;;16.27;6.93;;;;;;;18.80;47.20;101503.28;5087766;28;20467;-69
2023/06/14 06:37:41;;;;;;;8.80;5.43;;;;;;;18.86;47.02;101500.31;5077498;28;20025;-68
2023/06/14 06:40:07;;;;;;;11.75;5.53;;;;;;;19.00;47.59;101509.38;5087180;28;20103;-68
2023/06/14 06:42:33;;;;;;;15.35;5.57;;;;;;;19.09;46.73;101506.28;5079325;28;20039;-68
2023/06/14 06:44:58;;;;;;;14.05;5.60;;;;;;;19.16;46.93;101507.69;5087848;28;20028;-68
2023/06/14 06:47:24;;;;;;;13.27;6.15;;;;;;;19.24;46.53;101515.28;5086857;28;20032;-68
2023/06/14 06:49:50;;;;;;;9.88;5.43;;;;;;;19.26;45.99;101511.63;5086609;28;20025;-69
2023/06/14 06:52:15;;;;;;;9.10;4.82;;;;;;;19.36;47.07;101517.31;5080701;28;20154;-69
2023/06/14 06:54:41;;;;;;;6.78;4.72;;;;;;;19.46;46.13;101523.00;5085733;28;20471;-68
2023/06/14 06:57:06;;;;;;;7.55;5.28;;;;;;;19.49;45.13;101523.72;5080546;28;20047;-67
2023/06/14 06:59:32;;;;;;;12.55;5.05;;;;;;;19.55;45.98;101533.09;5081647;28;20510;-67
2023/06/14 07:01:58;;;;;;;11.05;4.82;;;;;;;19.60;44.72;101528.44;5086381;28;20027;-67
2023/06/14 07:04:23;;;;;;;10.88;5.00;;;;;;;19.68;46.40;101528.09;5077416;28;20586;-67
2023/06/14 07:06:48;;;;;;;9.43;5.15;;;;;;;19.76;45.71;101533.84;5070559;28;20477;-67
2023/06/14 07:09:14;;;;;;;8.93;5.28;;;;;;;19.84;45.75;101543.09;5085114;28;20032;-67
2023/06/14 07:11:41;;;;;;;10.90;4.80;;;;;;;19.93;45.64;101533.84;5085532;28;20111;-68
2023/06/14 07:14:06;;;;;;;9.18;4.88;;;;;;;19.96;45.20;101538.97;5085884;28;20042;-67
2023/06/14 07:16:32;;;;;;;5.75;4.68;;;;;;;20.09;45.38;101537.41;5083725;28;20480;-67
2023/06/14 07:18:57;;;;;;;8.77;4.78;;;;;;;20.18;45.50;101538.72;5086000;28;20036;-67
2023/06/14 07:21:22;;;;;;;10.20;4.93;;;;;;;20.27;44.86;101540.00;5079153;28;20028;-68
2023/06/14 07:23:48;;;;;;;10.10;4.70;;;;;;;20.37;46.06;101535.06;5084661;28;20464;-67
2023/06/14 07:26:13;;;;;;;8.90;5.05;;;;;;;20.48;44.38;101540.66;5085975;28;20024;-68
2023/06/14 07:28:38;;;;;;;9.70;5.00;;;;;;;20.53;43.93;101546.59;5084379;28;20439;-67
2023/06/14 07:31:04;;;;;;;9.07;4.75;;;;;;;20.58;42.76;101548.06;5086218;28;20028;-67
2023/06/14 07:33:29;;;;;;;8.02;4.60;;;;;;;20.63;42.72;101553.09;5087286;28;20507;-68
2023/06/14 07:35:55;;;;;;;10.43;4.50;;;;;;;20.61;43.39;101552.34;5083122;28;20040;-67
2023/06/14 07:38:20;;;;;;;8.77;4.60;;;;;;;20.69;42.79;101550.13;5089448;28;20021;-67
2023/06/14 07:40:45;;;;;;;9.48;4.53;;;;;;;20.78;42.85;101560.22;5082476;28;20055;-68
2023/06/14 07:43:11;;;;;;;13.30;4.68;;;;;;;20.86;42.20;101562.44;5090158;28;20044;-68
2023/06/14 07:45:37;;;;;;;7.28;4.32;;;;;;;20.92;41.41;101567.41;5082784;28;20475;-68
2023/06/14 07:48:02;;;;;;;9.63;4.65;;;;;;;21.01;42.58;101566.03;5088266;28;20037;-68
2023/06/14 07:50:28;;;;;;;9.43;4.72;;;;;;;21.13;43.10;101561.88;5082750;28;20368;-67
2023/06/14 07:52:54;;;;;;;10.30;5.03;;;;;;;21.23;42.59;101563.06;5082597;28;20028;-67
2023/06/14 07:55:19;;;;;;;7.32;4.75;;;;;;;21.34;41.79;101573.88;5087746;28;20521;-68
2023/06/14 07:57:44;;;;;;;7.07;4.43;;;;;;;21.44;41.83;101558.34;5082128;28;20055;-67
2023/06/14 08:00:15;;;;;;;9.10;4.13;;;;;;;21.58;41.44;101569.03;5088217;28;20081;-68
2023/06/14 08:02:42;;;;;;;7.80;4.20;;;;;;;21.63;41.05;101564.28;5081324;28;20077;-68
2023/06/14 08:05:09;;;;;;;7.28;4.57;;;;;;;21.71;40.29;101577.97;5087643;28;20057;-67
2023/06/14 08:07:34;;;;;;;13.65;3.97;;;;;;;21.73;39.37;101580.53;5082733;28;20036;-68
2023/06/14 08:10:00;;;;;;;7.80;3.83;;;;;;;21.76;39.51;101574.19;5084826;28;20020;-67
2023/06/14 08:12:26;;;;;;;11.57;4.00;;;;;;;21.86;38.22;101580.66;5084868;28;20028;-68
2023/06/14 08:14:51;;;;;;;6.38;4.05;;;;;;;21.92;38.37;101577.63;5083659;28;20035;-67
2023/06/14 08:17:17;;;;;;;11.75;3.92;;;;;;;22.00;39.52;101582.47;5084445;28;20103;-68
2023/06/14 08:19:42;;;;;;;9.77;4.20;;;;;;;22.13;40.12;101579.00;5083019;28;20027;-68
2023/06/14 08:22:07;;;;;;;9.93;3.88;;;;;;;22.22;38.49;101568.81;5076035;28;20099;-68
2023/06/14 08:24:33;;;;;;;9.85;3.97;;;;;;;22.31;38.74;101570.91;5086983;28;20031;-70
2023/06/14 08:27:00;;;;;;;10.48;3.72;;;;;;;22.36;38.50;101569.66;5077888;28;20027;-71
2023/06/14 08:29:29;;;;;;;8.20;3.83;;;;;;;22.40;38.49;101571.19;5084641;28;20400;-69
2023/06/14 08:31:54;;;;;;;8.75;3.50;;;;;;;22.44;39.14;101571.84;5077598;28;20039;-69
2023/06/14 08:34:20;;;;;;;7.47;3.90;;;;;;;22.42;38.27;101557.81;5085086;28;20103;-69
2023/06/14 08:36:45;;;;;;;7.07;3.88;;;;;;;22.54;37.91;101569.47;5083101;28;20039;-69
2023/06/14 08:39:11;;;;;;;10.32;3.97;;;;;;;22.64;37.64;101568.81;5072948;28;20047;-69
2023/06/14 08:41:37;;;;;;;7.53;3.80;;;;;;;22.68;37.10;101572.97;5084643;28;20505;-70
2023/06/14 08:44:02;;;;;;;8.98;3.50;;;;;;;22.77;38.43;101570.69;5084282;28;20103;-70
2023/06/14 08:46:32;;;;;;;6.75;3.67;;;;;;;22.90;37.56;101576.94;5081757;28;20099;-69
2023/06/14 08:48:58;;;;;;;8.48;3.60;;;;;;;23.02;36.89;101572.66;5081893;28;20025;-69
2023/06/14 08:51:26;;;;;;;5.15;3.40;;;;;;;23.19;38.10;101572.44;5083810;28;20019;-69
2023/06/14 08:53:57;;;;;;;12.38;4.10;;;;;;;23.18;36.12;101575.19;5080386;28;20037;-69
2023/06/14 08:56:26;;;;;;;9.65;3.67;;;;;;;23.20;35.17;101562.66;5074515;28;20028;-70
2023/06/14 08:58:51;;;;;;;7.55;3.35;;;;;;;23.27;37.50;101566.63;5074652;28;20050;-70
2023/06/14 09:01:17;;;;;;;4.05;3.40;;;;;;;23.34;35.23;101574.09;5081557;28;20029;-70
2023/06/14 09:03:43;;;;;;;7.47;3.30;;;;;;;23.41;34.89;101569.22;5084334;28;20023;-69
2023/06/14 09:06:13;;;;;;;6.65;3.17;;;;;;;23.44;35.10;101571.66;5082262;28;20020;-69
2023/06/14 09:08:41;;;;;;;6.88;3.20;;;;;;;23.56;35.38;101575.34;5083992;28;20012;-69
2023/06/14 09:11:06;;;;;;;5.50;3.25;;;;;;;23.71;35.98;101581.50;5083844;28;20468;-69
2023/06/14 09:13:32;;;;;;;7.10;3.13;;;;;;;23.76;36.15;101568.72;5081039;28;20035;-69
2023/06/14 09:15:57;;;;;;;8.68;3.20;;;;;;;23.86;35.44;101572.44;5078012;28;20077;-70
2023/06/14 09:18:37;;;;;;;3.38;2.60;;;;;;;23.95;35.00;101569.16;5074964;28;20103;-67
2023/06/14 09:21:02;;;;;;;8.48;3.15;;;;;;;23.98;33.74;101571.63;5065349;28;20107;-67
2023/06/14 09:23:27;;;;;;;6.60;2.95;;;;;;;24.04;32.32;101568.53;5076397;28;20111;-67
2023/06/14 09:25:53;;;;;;;4.03;2.53;;;;;;;24.14;33.34;101567.91;5083292;28;20522;-67
2023/06/14 09:28:22;;;;;;;6.63;2.72;;;;;;;24.20;31.16;101572.81;5085076;28;20128;-67
2023/06/14 09:30:47;;;;;;;11.60;3.13;;;;;;;24.23;29.70;101573.47;5083276;28;20117;-67
2023/06/14 09:33:17;;;;;;;6.72;2.30;;;;;;;24.24;30.39;101568.97;5087775;28;20064;-67
2023/06/14 09:35:45;;;;;;;8.32;2.20;;;;;;;24.32;30.56;101577.28;5079324;28;20036;-67
2023/06/14 09:38:11;;;;;;;4.30;2.25;;;;;;;24.39;29.80;101581.19;5072959;28;20070;-67
2023/06/14 09:40:36;;;;;;;3.47;2.08;;;;;;;24.38;29.89;101576.84;5075286;28;20052;-67
2023/06/14 09:43:06;;;;;;;6.38;2.15;;;;;;;24.48;29.83;101582.41;5088886;28;20057;-67
2023/06/14 09:45:31;;;;;;;4.50;1.85;;;;;;;24.49;29.28;101585.00;5080810;28;20115;-67
2023/06/14 09:47:57;;;;;;;2.85;1.65;;;;;;;24.51;29.45;101582.19;5078290;28;20052;-67
2023/06/14 09:50:23;;;;;;;2.22;1.55;;;;;;;24.52;29.68;101583.91;5080733;28;20024;-67
2023/06/14 09:52:52;;;;;;;3.72;1.77;;;;;;;24.69;30.29;101578.25;5078843;28;20032;-67
2023/06/14 09:55:19;;;;;;;2.38;1.50;;;;;;;24.94;29.16;101579.97;5078511;28;20093;-67
2023/06/14 09:57:46;;;;;;;4.25;1.73;;;;;;;24.93;27.78;101583.63;5080274;28;20060;-67
2023/06/14 10:00:15;;;;;;;4.93;1.70;;;;;;;24.97;30.18;101582.41;5086349;28;20036;-67
2023/06/14 10:02:47;;;;;;;5.70;1.65;;;;;;;24.91;28.67;101561.53;5077880;28;20421;-67
2023/06/14 10:05:17;;;;;;;4.65;1.90;;;;;;;25.01;29.91;101588.38;5085428;28;20029;-67
2023/06/14 10:07:51;;;;;;;5.47;2.17;;;;;;;25.12;29.66;101577.84;5072533;28;20036;-67
2023/06/14 10:10:16;;;;;;;7.30;2.10;;;;;;;25.25;28.67;101584.94;5086092;28;20028;-67
2023/06/14 10:12:41;;;;;;;7.82;1.88;;;;;;;25.28;28.92;101579.34;5062619;28;20043;-67
2023/06/14 10:15:16;;;;;;;3.63;1.80;;;;;;;25.26;29.67;101571.47;5065730;28;20074;-67
2023/06/14 10:17:59;;;;;;;2.42;1.50;;;;;;;25.28;30.03;101566.88;5067475;28;20499;-67
2023/06/14 10:20:27;;;;;;;2.28;1.83;;;;;;;25.37;30.00;101565.31;5073644;28;20392;-70
2023/06/14 10:23:07;;;;;;;3.13;1.75;;;;;;;25.35;28.85;101568.13;5077744;28;20044;-70
2023/06/14 10:25:33;;;;;;;3.45;1.90;;;;;;;25.43;28.86;101564.88;5071964;28;20033;-72
2023/06/14 10:28:13;;;;;;;2.90;1.83;;;;;;;25.55;28.70;101571.13;5083717;28;20097;-70
2023/06/14 10:30:39;;;;;;;5.63;1.90;;;;;;;25.67;29.17;101567.53;5081223;28;20039;-69
2023/06/14 10:33:07;;;;;;;4.38;2.05;;;;;;;25.67;28.85;101567.53;5082563;28;20025;-70
2023/06/14 10:35:34;;;;;;;3.83;2.05;;;;;;;25.81;29.35;101566.50;5075876;28;20429;-69
2023/06/14 10:38:11;;;;;;;2.67;1.92;;;;;;;25.92;29.12;101566.53;5073375;28;20032;-70
2023/06/14 10:40:38;;;;;;;4.13;2.03;;;;;;;25.82;29.44;101569.06;5072756;28;20029;-70
2023/06/14 10:43:21;;;;;;;6.05;2.13;;;;;;;25.98;28.79;101560.72;5086454;28;20036;-70
2023/06/14 10:46:25;;;;;;;;;;;;;;;26.18;29.06;101572.53;5081777;28;20036;-70
2023/06/14 10:48:57;;;;;;;4.80;1.85;;;;;;;26.29;29.00;101571.69;5052149;28;20030;-70
2023/06/14 10:51:23;;;;;;;4.63;1.90;;;;;;;26.37;28.94;101574.63;5048434;28;20067;-70
2023/06/14 10:53:49;;;;;;;2.60;1.80;;;;;;;26.50;29.46;101577.22;5062536;28;20123;-70
2023/06/14 10:56:30;;;;;;;3.80;1.95;;;;;;;26.58;28.04;101574.75;5081402;28;20024;-70
2023/06/14 10:58:59;;;;;;;4.05;2.15;;;;;;;26.34;27.84;101580.19;5080724;28;20027;-70
2023/06/14 11:01:41;;;;;;;3.03;2.03;;;;;;;26.47;27.83;101574.75;5085718;28;20031;-70
2023/06/14 11:04:09;;;;;;;2.78;2.13;;;;;;;26.56;27.70;101576.72;5083833;28;20036;-70
2023/06/14 11:07:05;;;;;;;3.45;2.03;;;;;;;26.67;28.22;101576.72;5085747;28;20101;-70
2023/06/14 11:10:03;;;;;;;5.03;1.85;;;;;;;26.72;28.67;101557.63;5083960;28;20062;-70
2023/06/14 11:12:31;;;;;;;3.97;2.40;;;;;;;26.78;26.82;101555.31;5079634;28;20024;-69
2023/06/14 11:14:57;;;;;;;2.28;2.03;;;;;;;26.81;27.34;101570.25;5074802;28;20558;-71
2023/06/14 11:17:22;;;;;;;3.58;2.00;;;;;;;26.87;26.34;101563.56;5071726;28;20151;-70
2023/06/14 11:19:47;;;;;;;4.50;2.40;;;;;;;26.90;27.47;101563.31;5081815;28;20069;-70
2023/06/14 11:22:14;;;;;;;3.97;2.25;;;;;;;26.96;28.41;101558.31;5082431;28;20024;-70